Time;durP1;ratioP1;P1;durP2;ratioP2;P2;SDS_P1;SDS_P2;PMS_P1;PMS_P2;Temp;Humidity;BMP_temperature;BMP_pressure;BME280_temperature;BME280_humidity;BME280_pressure;Samples;Min_cycle;Max_cycle;Signal;HPM_P1;HPM_P2
2023/10/26 09:51:32;;;;;;;6.70;3.07;;;11.00;99.90;;;;;;4937423;23;20336;-72
2023/10/26 09:54:04;;;;;;;6.10;3.17;;;11.00;99.90;;;;;;4934962;29;20217;-74
2023/10/26 09:56:32;;;;;;;4.83;2.60;;;11.20;99.90;;;;;;4918097;29;20201;-70
2023/10/26 09:59:00;;;;;;;7.40;4.07;;;11.30;99.90;;;;;;4910597;29;20210;-69
2023/10/26 10:01:36;;;;;;;8.27;2.87;;;11.30;99.90;;;;;;4916813;29;20213;-70
2023/10/26 10:04:04;;;;;;;5.67;3.30;;;11.20;99.90;;;;;;4916451;29;20233;-72
2023/10/26 10:06:53;;;;;;;7.17;3.40;;;11.40;99.90;;;;;;4916424;29;20218;-72
2023/10/26 10:09:22;;;;;;;5.23;3.00;;;11.70;99.90;;;;;;4916467;29;20296;-74
2023/10/26 10:12:26;;;;;;;5.23;2.67;;;11.80;99.90;;;;;;4911671;29;20736;-72
2023/10/26 10:15:00;;;;;;;6.00;3.00;;;11.80;99.90;;;;;;4905140;29;20217;-72
2023/10/26 10:18:13;;;;;;;6.73;2.70;;;11.80;99.90;;;;;;4905865;29;20221;-71
2023/10/26 10:20:41;;;;;;;7.63;2.70;;;12.00;99.90;;;;;;4915662;29;20257;-72
2023/10/26 10:23:27;;;;;;;4.17;2.47;;;11.90;99.90;;;;;;4916222;29;20677;-73
2023/10/26 10:26:02;;;;;;;4.43;2.37;;;11.70;99.90;;;;;;4915959;29;20248;-74
2023/10/26 10:28:47;;;;;;;3.67;2.07;;;12.00;99.90;;;;;;4915800;29;20245;-74
2023/10/26 10:31:22;;;;;;;4.60;2.43;;;12.60;99.90;;;;;;4904673;29;20565;-75
2023/10/26 10:34:02;;;;;;;4.13;2.33;;;13.00;99.90;;;;;;4915773;29;20216;-74
2023/10/26 10:36:30;;;;;;;5.30;2.47;;;12.90;99.90;;;;;;4896909;29;20210;-74
2023/10/26 10:39:23;;;;;;;5.13;2.30;;;12.90;99.90;;;;;;4901383;29;20311;-74
2023/10/26 10:41:51;;;;;;;6.57;2.70;;;13.00;99.90;;;;;;4907820;29;20673;-71
2023/10/26 10:44:18;;;;;;;4.30;2.37;;;13.10;99.90;;;;;;4915550;29;20261;-75
2023/10/26 10:46:48;;;;;;;3.87;2.43;;;13.30;99.90;;;;;;4904455;29;20302;-72
2023/10/26 10:49:16;;;;;;;4.37;2.57;;;13.50;99.90;;;;;;4896724;29;20226;-72
2023/10/26 10:51:44;;;;;;;3.83;2.20;;;13.60;99.90;;;;;;4907371;29;20677;-68
2023/10/26 10:54:13;;;;;;;3.00;2.03;;;13.90;99.90;;;;;;4914703;29;20643;-74
2023/10/26 10:56:43;;;;;;;4.80;2.40;;;14.00;99.90;;;;;;4905531;29;20255;-75
2023/10/26 10:59:17;;;;;;;4.33;2.00;;;14.00;99.90;;;;;;4896270;29;20744;-74
2023/10/26 11:01:44;;;;;;;2.97;2.00;;;14.20;99.90;;;;;;4908486;29;20224;-74
2023/10/26 11:04:13;;;;;;;2.33;1.67;;;14.20;99.90;;;;;;4915180;29;20340;-74
2023/10/26 11:06:45;;;;;;;2.70;1.70;;;14.40;99.90;;;;;;4915266;29;20236;-75
2023/10/26 11:09:27;;;;;;;2.90;1.90;;;14.50;99.90;;;;;;4914994;29;20210;-74
2023/10/26 11:11:56;;;;;;;3.40;1.80;;;14.40;99.90;;;;;;4915621;29;20209;-74
2023/10/26 11:14:23;;;;;;;2.87;1.50;;;14.10;99.90;;;;;;4915709;29;20213;-74
2023/10/26 11:16:52;;;;;;;2.37;1.80;;;14.20;99.90;;;;;;4915534;29;20209;-73
2023/10/26 11:19:19;;;;;;;2.57;1.67;;;14.30;99.90;;;;;;4915464;29;20209;-73
2023/10/26 11:21:46;;;;;;;3.40;1.90;;;14.50;99.90;;;;;;4914799;29;20209;-72
2023/10/26 11:24:18;;;;;;;2.40;1.80;;;14.80;99.90;;;;;;4916849;29;20237;-73
2023/10/26 11:27:08;;;;;;;2.40;1.77;;;15.00;99.90;;;;;;4916750;29;20301;-73
2023/10/26 11:29:35;;;;;;;2.20;1.90;;;14.80;99.90;;;;;;4916855;29;20215;-72
2023/10/26 11:32:02;;;;;;;2.43;1.90;;;14.80;99.90;;;;;;4916304;29;20216;-73
2023/10/26 11:34:29;;;;;;;2.47;1.90;;;14.80;99.90;;;;;;4916875;29;20213;-73
2023/10/26 11:36:57;;;;;;;2.30;1.60;;;14.80;99.90;;;;;;4916380;29;20317;-74
2023/10/26 11:39:25;;;;;;;2.57;1.80;;;14.70;99.90;;;;;;4919330;29;20301;-73
2023/10/26 11:41:56;;;;;;;2.53;1.80;;;14.70;99.90;;;;;;4920518;29;20257;-73
2023/10/26 11:44:29;;;;;;;2.57;1.80;;;14.40;99.90;;;;;;4920204;29;20591;-73
2023/10/26 11:47:01;;;;;;;2.33;1.70;;;14.40;99.90;;;;;;4920480;29;20300;-73
2023/10/26 11:49:41;;;;;;;4.97;1.93;;;14.40;99.90;;;;;;4920388;29;20664;-73
2023/10/26 11:52:08;;;;;;;5.27;2.20;;;14.30;99.90;;;;;;4920195;29;20260;-73
2023/10/26 11:54:35;;;;;;;2.40;1.90;;;14.20;99.90;;;;;;4920253;29;20219;-73
2023/10/26 11:57:02;;;;;;;2.70;1.77;;;14.30;99.90;;;;;;4920136;29;20237;-73
2023/10/26 11:59:30;;;;;;;3.00;2.00;;;14.30;99.90;;;;;;4920106;29;20692;-72
2023/10/26 12:01:57;;;;;;;2.43;1.83;;;14.30;99.90;;;;;;4920076;29;20213;-72
2023/10/26 12:04:24;;;;;;;2.87;1.80;;;14.10;99.90;;;;;;4920120;29;20241;-73
2023/10/26 12:06:51;;;;;;;2.73;1.87;;;14.30;99.90;;;;;;4919750;29;20209;-73
2023/10/26 12:09:18;;;;;;;3.13;1.90;;;14.40;99.90;;;;;;4919434;29;20656;-72
2023/10/26 12:11:46;;;;;;;3.00;1.97;;;14.40;99.90;;;;;;4919802;29;20683;-73
2023/10/26 12:14:13;;;;;;;2.50;1.63;;;14.40;99.90;;;;;;4919868;29;20216;-73
2023/10/26 12:16:41;;;;;;;2.13;1.57;;;14.40;99.90;;;;;;4919814;29;20305;-73
2023/10/26 12:19:10;;;;;;;1.87;1.40;;;14.50;99.90;;;;;;4919310;29;20261;-72
2023/10/26 12:21:37;;;;;;;3.27;1.60;;;14.40;99.90;;;;;;4919167;29;20269;-73
2023/10/26 12:24:04;;;;;;;2.57;1.50;;;14.20;99.90;;;;;;4919158;29;20289;-72
2023/10/26 12:26:31;;;;;;;2.57;1.97;;;14.10;99.90;;;;;;4919520;29;20214;-73
2023/10/26 12:28:58;;;;;;;2.93;1.53;;;14.00;99.90;;;;;;4918900;29;20244;-72
2023/10/26 12:31:25;;;;;;;2.60;1.40;;;14.00;99.90;;;;;;4919617;29;20304;-73
2023/10/26 12:33:54;;;;;;;3.03;1.63;;;14.00;99.90;;;;;;4919088;29;20216;-73
2023/10/26 12:36:21;;;;;;;3.87;1.30;;;14.00;99.90;;;;;;4918242;29;20214;-73
2023/10/26 12:38:47;;;;;;;2.73;1.50;;;14.00;99.90;;;;;;4917788;29;20276;-72
2023/10/26 12:41:14;;;;;;;2.57;1.60;;;14.00;99.90;;;;;;4918460;29;20213;-72
2023/10/26 12:43:41;;;;;;;2.13;1.43;;;14.10;99.90;;;;;;4919072;29;20220;-73
2023/10/26 12:46:08;;;;;;;2.63;1.40;;;14.20;99.90;;;;;;4919111;29;20258;-72
2023/10/26 12:48:35;;;;;;;2.40;1.13;;;14.30;99.90;;;;;;4919071;29;20230;-72
2023/10/26 12:51:03;;;;;;;1.33;0.80;;;14.20;99.90;;;;;;4917942;29;20217;-73
2023/10/26 12:53:31;;;;;;;0.90;0.70;;;14.20;99.90;;;;;;4918589;29;20643;-73
2023/10/26 12:55:58;;;;;;;0.80;0.50;;;14.20;99.90;;;;;;4918847;29;20292;-73
2023/10/26 12:58:25;;;;;;;1.17;0.70;;;14.10;99.90;;;;;;4918501;29;20233;-73
2023/10/26 13:00:52;;;;;;;1.33;1.10;;;13.90;99.90;;;;;;4919708;29;20265;-72
2023/10/26 13:03:19;;;;;;;1.17;0.90;;;13.90;99.90;;;;;;4917770;29;20218;-73
2023/10/26 13:05:46;;;;;;;1.27;0.57;;;13.80;99.90;;;;;;4918345;29;20237;-72
2023/10/26 13:08:14;;;;;;;1.20;0.70;;;14.00;99.90;;;;;;4918774;29;20323;-73
2023/10/26 13:10:43;;;;;;;1.10;0.60;;;13.90;99.90;;;;;;4918908;29;20502;-73
2023/10/26 13:13:09;;;;;;;1.00;0.50;;;13.80;99.90;;;;;;4919093;29;20213;-72
2023/10/26 13:15:36;;;;;;;0.83;0.67;;;13.80;99.90;;;;;;4918749;29;20205;-72
2023/10/26 13:18:03;;;;;;;0.60;0.50;;;13.70;99.90;;;;;;4918325;29;20712;-72
2023/10/26 13:20:30;;;;;;;1.33;0.50;;;13.70;99.90;;;;;;4918519;29;20224;-72
2023/10/26 13:22:57;;;;;;;2.20;0.70;;;13.60;99.90;;;;;;4919015;29;20209;-72
2023/10/26 13:25:26;;;;;;;1.47;0.90;;;13.70;99.90;;;;;;4918569;29;20305;-72
2023/10/26 13:27:53;;;;;;;0.50;0.40;;;13.60;99.90;;;;;;4918584;29;20265;-73
2023/10/26 13:30:20;;;;;;;1.00;0.70;;;13.50;99.90;;;;;;4918698;29;20252;-73
2023/10/26 13:32:47;;;;;;;0.50;0.40;;;13.50;99.90;;;;;;4918187;29;20292;-73
2023/10/26 13:35:14;;;;;;;0.57;0.50;;;13.70;99.90;;;;;;4917824;29;20272;-73
2023/10/26 13:37:41;;;;;;;0.50;0.40;;;13.80;99.90;;;;;;4917796;29;20229;-73
2023/10/26 13:40:09;;;;;;;0.70;0.50;;;13.80;99.90;;;;;;4918344;29;20210;-72
2023/10/26 13:42:37;;;;;;;1.87;0.47;;;13.70;99.90;;;;;;4918158;29;20300;-73
2023/10/26 13:45:05;;;;;;;0.90;0.60;;;13.70;99.90;;;;;;4918338;29;20233;-73
2023/10/26 13:47:32;;;;;;;2.20;0.70;;;13.80;99.90;;;;;;4918110;29;20233;-72
2023/10/26 13:49:59;;;;;;;0.63;0.43;;;13.70;99.90;;;;;;4918509;29;20217;-73
2023/10/26 13:52:28;;;;;;;1.10;0.73;;;13.50;99.90;;;;;;4917949;29;20218;-72
2023/10/26 13:54:55;;;;;;;0.60;0.50;;;13.70;99.90;;;;;;4917970;29;20602;-72
2023/10/26 13:57:22;;;;;;;1.10;0.53;;;13.60;99.90;;;;;;4914503;29;20237;-73
2023/10/26 13:59:50;;;;;;;1.77;0.90;;;13.70;99.90;;;;;;4916998;29;20220;-73
2023/10/26 14:02:19;;;;;;;0.83;0.50;;;13.80;99.90;;;;;;4915699;29;20208;-73
2023/10/26 14:04:46;;;;;;;1.00;0.60;;;13.90;99.90;;;;;;4915534;29;20201;-73
2023/10/26 14:07:12;;;;;;;0.80;0.60;;;14.00;99.90;;;;;;4917646;29;20660;-73
2023/10/26 14:09:39;;;;;;;2.87;0.60;;;14.20;99.90;;;;;;4917695;29;20217;-73
2023/10/26 14:12:07;;;;;;;2.37;0.80;;;14.40;99.90;;;;;;4917533;29;20879;-73
2023/10/26 14:14:35;;;;;;;2.73;0.90;;;14.50;99.90;;;;;;4917576;29;20216;-73
2023/10/26 14:17:04;;;;;;;1.57;0.60;;;14.40;99.90;;;;;;4917045;29;20313;-73
2023/10/26 14:19:31;;;;;;;1.67;0.67;;;14.40;99.90;;;;;;4917449;29;20213;-72
2023/10/26 14:21:58;;;;;;;1.43;1.10;;;14.60;99.90;;;;;;4917398;29;20747;-73
2023/10/26 14:24:24;;;;;;;1.83;0.70;;;14.70;99.90;;;;;;4917714;29;20216;-72
2023/10/26 14:26:51;;;;;;;1.00;0.70;;;14.60;99.90;;;;;;4917211;29;20248;-72
2023/10/26 14:29:18;;;;;;;2.00;0.70;;;14.80;99.90;;;;;;4917355;29;20216;-72
2023/10/26 14:31:45;;;;;;;1.50;0.70;;;14.90;99.90;;;;;;4916376;29;20681;-75
2023/10/26 14:34:13;;;;;;;1.30;0.80;;;14.80;99.90;;;;;;4912488;29;20212;-72
2023/10/26 14:36:40;;;;;;;0.90;0.67;;;14.60;99.90;;;;;;4917063;29;20217;-71
2023/10/26 14:39:07;;;;;;;0.80;0.53;;;14.40;99.90;;;;;;4908455;29;20209;-71
2023/10/26 14:41:33;;;;;;;3.03;0.60;;;14.40;99.90;;;;;;4917034;29;20330;-72
2023/10/26 14:44:00;;;;;;;1.47;0.70;;;14.30;99.90;;;;;;4915975;29;20210;-73
2023/10/26 14:46:31;;;;;;;1.83;0.80;;;14.20;99.90;;;;;;4917005;29;20708;-73
2023/10/26 14:48:59;;;;;;;2.17;0.80;;;14.30;99.90;;;;;;4917097;29;20223;-72
2023/10/26 14:51:27;;;;;;;1.00;0.80;;;14.10;99.90;;;;;;4907059;29;20266;-71
2023/10/26 14:53:55;;;;;;;0.90;0.70;;;14.10;99.90;;;;;;4914715;29;20216;-72
2023/10/26 14:56:22;;;;;;;4.97;1.10;;;14.20;99.90;;;;;;4916886;29;20312;-71
2023/10/26 14:58:49;;;;;;;1.30;0.77;;;14.20;99.90;;;;;;4916690;29;20226;-72
2023/10/26 15:01:16;;;;;;;3.10;0.80;;;14.30;99.90;;;;;;4916924;29;20209;-72
2023/10/26 15:03:43;;;;;;;1.87;1.00;;;14.20;99.90;;;;;;4916418;29;20209;-72
2023/10/26 15:06:10;;;;;;;2.03;1.00;;;14.30;99.90;;;;;;4916786;29;20328;-72
2023/10/26 15:08:38;;;;;;;4.03;1.20;;;14.30;99.90;;;;;;4916664;29;20236;-72
2023/10/26 15:11:05;;;;;;;2.20;1.30;;;14.30;99.90;;;;;;4916727;29;20306;-72
2023/10/26 15:13:32;;;;;;;2.83;1.40;;;14.30;99.90;;;;;;4915768;29;20292;-72
2023/10/26 15:16:00;;;;;;;2.07;1.33;;;14.40;99.90;;;;;;4916289;29;20213;-72
2023/10/26 15:18:27;;;;;;;2.67;1.10;;;14.30;99.90;;;;;;4916335;29;20316;-72
2023/10/26 15:20:54;;;;;;;2.23;1.07;;;14.30;99.90;;;;;;4916574;29;20210;-72
2023/10/26 15:23:20;;;;;;;2.47;1.10;;;14.00;99.90;;;;;;4916293;29;20765;-72
2023/10/26 15:25:49;;;;;;;1.90;1.10;;;13.90;99.90;;;;;;4916548;29;20237;-72
2023/10/26 15:28:15;;;;;;;1.83;1.10;;;13.90;99.90;;;;;;4904010;29;20294;-72
2023/10/26 15:30:42;;;;;;;1.10;0.90;;;13.80;99.90;;;;;;4907463;29;20670;-73
2023/10/26 15:33:09;;;;;;;2.20;1.17;;;13.80;99.90;;;;;;4907329;29;20214;-73
2023/10/26 15:35:36;;;;;;;1.90;1.10;;;13.60;99.90;;;;;;4897694;29;20218;-73
2023/10/26 15:38:03;;;;;;;3.23;1.10;;;13.40;99.90;;;;;;4905137;29;20229;-73
2023/10/26 15:40:29;;;;;;;3.03;1.20;;;13.40;99.90;;;;;;4916194;29;20214;-73
2023/10/26 15:42:58;;;;;;;2.80;1.40;;;13.30;99.90;;;;;;4916325;29;20227;-73
2023/10/26 15:45:24;;;;;;;2.07;1.40;;;13.30;99.90;;;;;;4916394;29;20239;-73
2023/10/26 15:47:51;;;;;;;1.60;1.50;;;13.40;99.90;;;;;;4928721;23;20331;-72
2023/10/26 15:50:18;;;;;;;2.80;1.40;;;13.30;99.90;;;;;;4915800;29;20209;-73
2023/10/26 15:52:45;;;;;;;2.50;1.43;;;13.30;99.90;;;;;;4913270;29;20216;-73
2023/10/26 15:55:12;;;;;;;2.40;1.30;;;13.30;99.90;;;;;;4915845;29;20696;-75
2023/10/26 15:57:39;;;;;;;1.70;1.30;;;13.50;99.90;;;;;;4911383;29;20229;-76
2023/10/26 16:00:10;;;;;;;2.27;1.40;;;13.40;99.90;;;;;;4916323;29;20216;-74
2023/10/26 16:02:37;;;;;;;2.43;1.70;;;13.50;99.90;;;;;;4912433;29;20216;-75
2023/10/26 16:05:04;;;;;;;1.80;1.50;;;13.50;99.90;;;;;;4915963;29;20201;-75
2023/10/26 16:07:32;;;;;;;2.53;1.10;;;13.50;99.90;;;;;;4918387;29;20241;-73
2023/10/26 16:09:59;;;;;;;3.17;1.50;;;13.20;99.90;;;;;;4919168;29;20222;-76
2023/10/26 16:12:26;;;;;;;1.83;1.37;;;13.20;99.90;;;;;;4910940;29;20554;-77
2023/10/26 16:14:53;;;;;;;3.73;1.80;;;13.00;99.90;;;;;;4915013;29;20304;-75
2023/10/26 16:17:21;;;;;;;4.57;1.50;;;12.90;99.90;;;;;;4914993;29;20645;-74
2023/10/26 16:19:48;;;;;;;2.57;1.70;;;12.90;99.90;;;;;;4915747;29;20214;-77
2023/10/26 16:22:15;;;;;;;1.87;1.33;;;12.90;99.90;;;;;;4901105;29;20293;-78
2023/10/26 16:24:42;;;;;;;2.40;1.60;;;12.90;99.90;;;;;;4916078;29;20270;-77
2023/10/26 16:27:09;;;;;;;4.67;1.77;;;13.00;99.90;;;;;;4904685;29;20741;-77
2023/10/26 16:29:37;;;;;;;2.73;1.60;;;13.10;99.90;;;;;;4919210;29;20218;-77
2023/10/26 16:32:05;;;;;;;4.43;1.70;;;13.20;99.90;;;;;;4901196;29;20664;-75
2023/10/26 16:34:33;;;;;;;3.03;1.70;;;13.20;99.90;;;;;;4919293;29;20643;-75
2023/10/26 16:37:00;;;;;;;4.67;1.90;;;13.20;99.90;;;;;;4918714;29;20277;-78
2023/10/26 16:39:26;;;;;;;1.93;1.33;;;13.30;99.90;;;;;;4917993;29;20210;-75
2023/10/26 16:41:53;;;;;;;3.43;1.77;;;13.30;99.90;;;;;;4899708;29;20218;-75
2023/10/26 16:44:20;;;;;;;1.80;1.40;;;13.30;99.90;;;;;;4914415;29;20292;-72
2023/10/26 16:46:47;;;;;;;2.07;1.27;;;13.30;99.90;;;;;;4917957;29;20245;-77
2023/10/26 16:49:14;;;;;;;1.60;1.40;;;13.30;99.90;;;;;;4918594;29;20221;-87
2023/10/26 16:51:42;;;;;;;3.47;1.53;;;13.40;99.90;;;;;;4917737;29;20209;-74
2023/10/26 16:54:09;;;;;;;2.10;1.57;;;13.40;99.90;;;;;;4912401;29;20208;-74
2023/10/26 16:56:36;;;;;;;3.43;2.00;;;13.30;99.90;;;;;;4919131;29;20684;-74
2023/10/26 16:59:03;;;;;;;3.47;2.37;;;13.40;99.90;;;;;;4919030;29;20300;-75
2023/10/26 17:01:29;;;;;;;3.10;1.60;;;13.30;99.90;;;;;;4919346;29;20227;-74
2023/10/26 17:03:56;;;;;;;3.10;2.27;;;13.20;99.90;;;;;;4912355;29;20216;-73
2023/10/26 17:06:23;;;;;;;4.20;1.80;;;13.30;99.90;;;;;;4919039;29;20353;-74
2023/10/26 17:08:51;;;;;;;5.53;2.60;;;13.20;99.90;;;;;;4918361;29;20230;-74
2023/10/26 17:11:18;;;;;;;4.17;2.50;;;13.20;99.90;;;;;;4918634;29;20209;-76
2023/10/26 17:13:45;;;;;;;5.33;2.30;;;13.20;99.90;;;;;;4911431;29;20253;-73
2023/10/26 17:16:12;;;;;;;4.27;2.50;;;13.00;99.90;;;;;;4905090;29;20305;-73
2023/10/26 17:18:39;;;;;;;5.30;2.50;;;13.20;99.90;;;;;;4904177;29;20615;-74
2023/10/26 17:21:06;;;;;;;4.67;2.40;;;13.20;99.90;;;;;;4916840;29;20212;-75
2023/10/26 17:23:32;;;;;;;8.67;3.47;;;13.30;99.90;;;;;;4911851;29;20213;-73
2023/10/26 17:26:00;;;;;;;7.00;3.13;;;13.30;99.90;;;;;;4912175;29;20249;-74
2023/10/26 17:28:27;;;;;;;4.23;3.10;;;13.30;99.90;;;;;;4915138;29;20226;-74
2023/10/26 17:30:54;;;;;;;3.80;2.23;;;13.30;99.90;;;;;;4910022;29;20209;-74
2023/10/26 17:33:21;;;;;;;2.40;1.83;;;13.30;99.90;;;;;;4908863;29;20208;-75
2023/10/26 17:35:50;;;;;;;6.70;3.40;;;13.40;99.90;;;;;;4917286;29;20205;-78
2023/10/26 17:38:17;;;;;;;3.60;2.40;;;13.30;99.90;;;;;;4917886;29;20316;-78
2023/10/26 17:40:44;;;;;;;5.73;2.13;;;13.20;99.90;;;;;;4918670;29;20221;-79
2023/10/26 17:43:12;;;;;;;4.40;2.30;;;13.20;99.90;;;;;;4908810;29;20214;-78
2023/10/26 17:45:39;;;;;;;6.10;2.90;;;13.10;99.90;;;;;;4911690;29;20214;-78
2023/10/26 17:48:06;;;;;;;8.93;3.43;;;13.10;99.90;;;;;;4906262;29;20270;-79
2023/10/26 17:50:38;;;;;;;3.87;2.90;;;13.00;99.90;;;;;;4904979;29;20241;-78
2023/10/26 17:53:05;;;;;;;5.00;2.53;;;12.90;99.90;;;;;;4917458;29;20313;-78
2023/10/26 17:55:32;;;;;;;6.20;3.40;;;12.80;99.90;;;;;;4917432;29;20292;-79
2023/10/26 17:57:59;;;;;;;7.87;3.90;;;12.70;99.90;;;;;;4918583;29;20735;-78
2023/10/26 18:00:27;;;;;;;7.23;3.20;;;12.70;99.90;;;;;;4918103;29;20209;-79
2023/10/26 18:02:55;;;;;;;7.07;3.43;;;12.60;99.90;;;;;;4918291;29;20212;-79
2023/10/26 18:05:22;;;;;;;8.00;4.17;;;12.50;99.90;;;;;;4918723;29;20229;-78
2023/10/26 18:07:49;;;;;;;6.03;3.20;;;12.50;99.90;;;;;;4917758;29;20245;-80
2023/10/26 18:10:16;;;;;;;6.30;3.50;;;12.40;99.90;;;;;;4916635;29;20202;-79
2023/10/26 18:12:43;;;;;;;7.70;3.17;;;12.40;99.90;;;;;;4918481;29;20296;-79
2023/10/26 18:15:11;;;;;;;6.30;3.30;;;12.30;99.90;;;;;;4912638;29;20214;-78
2023/10/26 18:17:40;;;;;;;7.97;3.63;;;12.30;99.90;;;;;;4897996;29;20229;-79
2023/10/26 18:20:09;;;;;;;9.27;3.50;;;12.20;99.90;;;;;;4904026;29;20210;-75
2023/10/26 18:22:35;;;;;;;8.20;3.90;;;12.10;99.90;;;;;;4910887;29;20235;-79
2023/10/26 18:25:03;;;;;;;6.57;3.53;;;12.10;99.90;;;;;;4916786;29;20653;-79
2023/10/26 18:27:30;;;;;;;6.00;3.10;;;12.10;99.90;;;;;;4904191;29;20257;-78
2023/10/26 18:29:58;;;;;;;6.00;3.20;;;12.00;99.90;;;;;;4917154;29;20233;-77
2023/10/26 18:32:24;;;;;;;6.43;2.77;;;11.90;99.90;;;;;;4916773;29;20696;-77
2023/10/26 18:34:53;;;;;;;5.90;3.23;;;11.90;99.90;;;;;;4917096;29;20212;-78
2023/10/26 18:37:20;;;;;;;6.70;3.00;;;11.90;99.90;;;;;;4917047;29;20229;-78
2023/10/26 18:39:48;;;;;;;8.00;3.30;;;11.90;99.90;;;;;;4916654;29;20206;-78
2023/10/26 18:42:14;;;;;;;9.30;3.13;;;11.90;99.90;;;;;;4916822;29;20317;-78
2023/10/26 18:44:41;;;;;;;9.57;3.10;;;12.00;99.90;;;;;;4916730;29;20210;-78
2023/10/26 18:47:08;;;;;;;5.97;2.90;;;12.00;99.90;;;;;;4916300;29;20251;-79
2023/10/26 18:49:35;;;;;;;4.43;2.77;;;12.00;99.90;;;;;;4899977;29;20210;-78
2023/10/26 18:52:03;;;;;;;7.07;2.93;;;12.00;99.90;;;;;;4912420;29;20205;-77
2023/10/26 18:54:30;;;;;;;5.73;2.73;;;12.00;99.90;;;;;;4916555;29;20213;-78
2023/10/26 18:56:57;;;;;;;8.37;2.63;;;12.10;99.90;;;;;;4909201;29;20312;-77
2023/10/26 18:59:24;;;;;;;7.93;2.30;;;12.10;99.90;;;;;;4911547;29;20265;-79
2023/10/26 19:01:51;;;;;;;14.03;3.40;;;12.10;99.90;;;;;;4916489;29;20201;-77
2023/10/26 19:04:17;;;;;;;4.50;1.93;;;12.00;99.90;;;;;;4915291;29;20736;-78
2023/10/26 19:06:44;;;;;;;4.10;1.77;;;12.00;99.90;;;;;;4899896;29;20265;-78
2023/10/26 19:09:13;;;;;;;6.77;1.83;;;12.00;99.90;;;;;;4899679;29;20214;-78
2023/10/26 19:11:39;;;;;;;5.57;1.67;;;12.00;99.90;;;;;;4915561;29;20665;-78
2023/10/26 19:14:06;;;;;;;8.20;1.40;;;12.00;99.90;;;;;;4916716;29;20244;-78
2023/10/26 19:16:33;;;;;;;9.43;1.60;;;11.90;99.90;;;;;;4916369;29;20215;-80
2023/10/26 19:19:00;;;;;;;11.30;1.87;;;11.90;99.90;;;;;;4905094;29;20220;-77
2023/10/26 19:21:27;;;;;;;6.93;2.03;;;11.80;99.90;;;;;;4905109;29;20205;-75
2023/10/26 19:23:54;;;;;;;9.90;2.40;;;11.70;99.90;;;;;;4902878;29;20683;-74
2023/10/26 19:26:22;;;;;;;7.17;2.00;;;11.70;99.90;;;;;;4916209;29;20666;-74
2023/10/26 19:28:49;;;;;;;4.27;1.53;;;11.80;99.90;;;;;;4916264;29;20226;-75
2023/10/26 19:31:16;;;;;;;3.60;1.63;;;11.70;99.90;;;;;;4916392;29;20729;-79
2023/10/26 19:33:45;;;;;;;8.77;2.63;;;11.70;99.90;;;;;;4916206;29;20273;-80
2023/10/26 19:36:12;;;;;;;9.70;1.77;;;11.70;99.90;;;;;;4916835;29;20613;-80
2023/10/26 19:38:39;;;;;;;5.90;1.63;;;11.70;99.90;;;;;;4904223;29;20225;-79
2023/10/26 19:41:05;;;;;;;7.60;1.80;;;11.70;99.90;;;;;;4916423;29;20212;-79
2023/10/26 19:43:34;;;;;;;8.27;1.93;;;11.80;99.90;;;;;;4904090;29;20681;-79
2023/10/26 19:46:00;;;;;;;3.00;1.70;;;11.80;99.90;;;;;;4915994;29;20296;-79
2023/10/26 19:48:27;;;;;;;7.03;1.57;;;11.80;99.90;;;;;;4916092;29;20241;-80
2023/10/26 19:50:54;;;;;;;9.40;1.60;;;11.70;99.90;;;;;;4916221;29;20217;-78
2023/10/26 19:53:23;;;;;;;7.40;1.97;;;11.70;99.90;;;;;;4916775;29;20213;-78
2023/10/26 19:55:52;;;;;;;8.87;1.70;;;11.70;99.90;;;;;;4916425;29;20292;-78
2023/10/26 19:58:21;;;;;;;2.80;1.20;;;11.70;99.90;;;;;;4916194;29;20264;-78
2023/10/26 20:00:50;;;;;;;4.33;1.87;;;11.70;99.90;;;;;;4924969;29;20213;-78
2023/10/26 20:03:17;;;;;;;4.37;1.70;;;11.70;99.90;;;;;;4911555;29;20218;-78
2023/10/26 20:05:44;;;;;;;8.63;2.30;;;11.70;99.90;;;;;;4915994;29;20296;-79
2023/10/26 20:08:11;;;;;;;11.10;1.47;;;11.80;99.90;;;;;;4919942;29;20269;-79
2023/10/26 20:10:38;;;;;;;11.63;1.80;;;11.80;99.90;;;;;;4919726;29;20669;-78
2023/10/26 20:13:04;;;;;;;4.43;1.47;;;11.80;99.90;;;;;;4921013;29;20210;-78
2023/10/26 20:15:31;;;;;;;6.67;1.73;;;11.80;99.90;;;;;;4919735;29;20221;-75
2023/10/26 20:17:59;;;;;;;5.50;1.87;;;11.90;99.90;;;;;;4919753;29;20316;-77
2023/10/26 20:20:28;;;;;;;11.23;2.03;;;11.90;99.90;;;;;;4919478;29;20214;-77
2023/10/26 20:22:55;;;;;;;5.00;1.27;;;11.90;99.90;;;;;;4919210;29;20665;-75
2023/10/26 20:25:22;;;;;;;8.00;1.97;;;11.80;99.90;;;;;;4918655;29;20208;-78
2023/10/26 20:27:48;;;;;;;7.43;1.57;;;11.80;99.90;;;;;;4919728;29;20328;-76
2023/10/26 20:30:16;;;;;;;4.20;2.20;;;11.90;99.90;;;;;;4919110;29;20217;-74
2023/10/26 20:32:43;;;;;;;8.57;1.40;;;11.90;99.90;;;;;;4919312;29;20306;-75
2023/10/26 20:35:12;;;;;;;3.57;1.27;;;11.90;99.90;;;;;;4919063;29;20225;-75
2023/10/26 20:37:39;;;;;;;7.60;1.43;;;12.00;99.90;;;;;;4919286;29;20308;-74
2023/10/26 20:40:07;;;;;;;2.97;1.33;;;12.00;99.90;;;;;;4918742;29;20214;-76
2023/10/26 20:42:35;;;;;;;4.83;1.70;;;12.10;99.90;;;;;;4920250;29;20336;-78
2023/10/26 20:45:02;;;;;;;7.13;1.60;;;12.00;99.90;;;;;;4919654;29;20214;-78
2023/10/26 20:47:29;;;;;;;7.80;1.83;;;12.00;99.90;;;;;;4919636;29;20248;-77
2023/10/26 20:49:56;;;;;;;7.07;1.47;;;12.00;99.90;;;;;;4918893;29;20206;-78
2023/10/26 20:52:25;;;;;;;8.20;1.60;;;12.00;99.90;;;;;;4918887;29;20566;-78
2023/10/26 20:54:52;;;;;;;5.80;1.50;;;12.00;99.90;;;;;;4919354;29;20206;-79
2023/10/26 20:57:19;;;;;;;8.33;1.93;;;12.10;99.90;;;;;;4918884;29;20662;-78
2023/10/26 20:59:46;;;;;;;5.27;1.30;;;12.10;99.90;;;;;;4918819;29;20205;-78
2023/10/26 21:02:12;;;;;;;4.20;1.70;;;12.10;99.90;;;;;;4919017;29;20219;-78
2023/10/26 21:04:39;;;;;;;5.80;1.70;;;12.20;99.90;;;;;;4918818;29;20205;-78
2023/10/26 21:07:07;;;;;;;4.60;1.70;;;12.00;99.90;;;;;;4918805;29;20242;-78
2023/10/26 21:09:35;;;;;;;5.60;1.63;;;12.10;99.90;;;;;;4918887;29;20705;-79
2023/10/26 21:12:02;;;;;;;7.30;1.93;;;12.00;99.90;;;;;;4905281;29;20289;-79
2023/10/26 21:14:30;;;;;;;7.23;1.60;;;12.00;99.90;;;;;;4918604;29;20534;-79
2023/10/26 21:16:57;;;;;;;11.87;1.97;;;11.80;99.90;;;;;;4917323;29;20314;-79
2023/10/26 21:19:24;;;;;;;10.30;2.30;;;11.70;99.90;;;;;;4900038;29;20217;-79
2023/10/26 21:21:51;;;;;;;5.27;1.60;;;11.80;99.90;;;;;;4913312;29;20744;-78
2023/10/26 21:24:17;;;;;;;3.43;1.53;;;12.00;99.90;;;;;;4918681;29;20206;-79
2023/10/26 21:26:46;;;;;;;4.23;1.20;;;11.90;99.90;;;;;;4918118;29;20214;-78
2023/10/26 21:29:12;;;;;;;3.97;1.50;;;11.90;99.90;;;;;;4918376;29;20237;-79
2023/10/26 21:31:39;;;;;;;10.77;1.60;;;11.80;99.90;;;;;;4918016;29;20220;-78
2023/10/26 21:34:06;;;;;;;6.77;2.00;;;11.80;99.90;;;;;;4918247;29;20296;-78
2023/10/26 21:36:33;;;;;;;10.37;2.30;;;11.80;99.90;;;;;;4918320;29;20210;-79
2023/10/26 21:38:59;;;;;;;9.57;1.90;;;11.80;99.90;;;;;;4918007;29;20575;-76
2023/10/26 21:41:27;;;;;;;6.67;1.70;;;11.80;99.90;;;;;;4917660;29;20212;-78
2023/10/26 21:43:55;;;;;;;5.40;1.50;;;11.80;99.90;;;;;;4918315;29;20261;-78
2023/10/26 21:46:22;;;;;;;9.40;2.00;;;11.80;99.90;;;;;;4918148;29;20366;-79
2023/10/26 21:48:49;;;;;;;5.67;1.60;;;11.70;99.90;;;;;;4944710;23;20238;-77
2023/10/26 21:51:16;;;;;;;9.23;1.77;;;11.70;99.90;;;;;;4936535;29;20213;-77
2023/10/26 21:53:42;;;;;;;4.70;1.53;;;11.70;99.90;;;;;;4936823;29;20211;-77
2023/10/26 21:56:09;;;;;;;9.37;1.73;;;11.60;99.90;;;;;;4936510;29;20204;-77
2023/10/26 21:58:36;;;;;;;7.83;2.20;;;11.60;99.90;;;;;;4922843;29;20234;-76
